Time;durP1;ratioP1;P1;durP2;ratioP2;P2;SDS_P1;SDS_P2;PMS_P1;PMS_P2;Temp;Humidity;BMP_temperature;BMP_pressure;BME280_temperature;BME280_humidity;BME280_pressure;Samples;Min_cycle;Max_cycle;Signal;HPM_P1;HPM_P2
2021/08/28 00:00:26;;;;;;;0.75;0.75;;;;;;;;;;5029321;28;20481;-83
2021/08/28 00:02:53;;;;;;;0.80;0.80;;;;;;;;;;5030958;28;20118;-83
2021/08/28 00:05:21;;;;;;;0.90;0.90;;;;;;;;;;5029135;28;20049;-83
2021/08/28 00:07:48;;;;;;;0.90;0.90;;;;;;;;;;5030849;28;20037;-83
2021/08/28 00:10:15;;;;;;;0.80;0.80;;;;;;;;;;5029337;28;20041;-83
2021/08/28 00:12:42;;;;;;;0.90;0.90;;;;;;;;;;5029329;28;20465;-83
2021/08/28 00:15:09;;;;;;;1.77;1.00;;;;;;;;;;5045222;28;20048;-83
2021/08/28 00:17:39;;;;;;;1.40;1.35;;;;;;;;;;5030195;28;20037;-84
2021/08/28 00:20:06;;;;;;;1.08;1.08;;;;;;;;;;5029077;28;20477;-83
2021/08/28 00:22:33;;;;;;;1.20;1.10;;;;;;;;;;5028638;28;20057;-83
2021/08/28 00:25:00;;;;;;;1.00;1.00;;;;;;;;;;5026567;28;20506;-83
2021/08/28 00:27:27;;;;;;;1.00;1.00;;;;;;;;;;5028369;28;20037;-83
2021/08/28 00:29:53;;;;;;;1.25;1.13;;;;;;;;;;5028187;28;20045;-83
2021/08/28 00:32:20;;;;;;;1.40;0.80;;;;;;;;;;5031374;28;20068;-83
2021/08/28 00:34:47;;;;;;;1.77;0.90;;;;;;;;;;5027679;28;20412;-84
2021/08/28 00:37:14;;;;;;;2.40;0.90;;;;;;;;;;5045319;28;20095;-84
2021/08/28 00:39:40;;;;;;;0.88;0.88;;;;;;;;;;5027807;28;20073;-84
2021/08/28 00:42:07;;;;;;;1.20;1.08;;;;;;;;;;5028205;28;20430;-83
2021/08/28 00:44:38;;;;;;;1.00;1.00;;;;;;;;;;5030169;28;20140;-83
2021/08/28 00:47:04;;;;;;;1.58;1.20;;;;;;;;;;5026118;28;20505;-84
2021/08/28 00:49:31;;;;;;;0.93;0.93;;;;;;;;;;5029009;28;20029;-83
2021/08/28 00:52:02;;;;;;;1.83;1.02;;;;;;;;;;5025078;28;20053;-83
2021/08/28 00:54:29;;;;;;;1.10;1.10;;;;;;;;;;5040277;28;20045;-83
2021/08/28 00:56:56;;;;;;;1.35;1.10;;;;;;;;;;5028253;28;20540;-83
2021/08/28 00:59:23;;;;;;;1.00;1.00;;;;;;;;;;5029906;28;20033;-83
2021/08/28 01:01:50;;;;;;;1.20;1.20;;;;;;;;;;5029274;28;20037;-83
2021/08/28 01:04:20;;;;;;;1.00;1.00;;;;;;;;;;5027110;28;20084;-83
2021/08/28 01:06:58;;;;;;;0.98;0.98;;;;;;;;;;5027062;28;20049;-83
2021/08/28 01:09:30;;;;;;;1.15;0.90;;;;;;;;;;5040157;28;20042;-83
2021/08/28 01:12:01;;;;;;;0.90;0.90;;;;;;;;;;5022098;28;20064;-83
2021/08/28 01:14:28;;;;;;;1.00;1.00;;;;;;;;;;5029522;28;20125;-83
2021/08/28 01:16:59;;;;;;;1.25;1.25;;;;;;;;;;5028939;28;20033;-83
2021/08/28 01:19:26;;;;;;;1.02;1.00;;;;;;;;;;5060630;28;20037;-83
2021/08/28 01:21:53;;;;;;;1.00;1.00;;;;;;;;;;5028255;28;20069;-84
2021/08/28 01:24:20;;;;;;;0.90;0.90;;;;;;;;;;5030577;28;20117;-83
2021/08/28 01:27:07;;;;;;;1.38;1.00;;;;;;;;;;5030087;28;20500;-83
2021/08/28 01:29:35;;;;;;;1.50;0.93;;;;;;;;;;5007486;28;20512;-83
2021/08/28 01:32:03;;;;;;;1.25;1.20;;;;;;;;;;5029824;28;20080;-83
2021/08/28 01:34:30;;;;;;;1.70;1.00;;;;;;;;;;5045050;28;20042;-83
2021/08/28 01:36:58;;;;;;;1.42;0.90;;;;;;;;;;5022497;28;20528;-84
2021/08/28 01:39:25;;;;;;;0.98;0.98;;;;;;;;;;5028349;28;20049;-83
2021/08/28 01:41:54;;;;;;;1.48;1.10;;;;;;;;;;5028599;28;20082;-83
2021/08/28 01:44:22;;;;;;;1.00;1.00;;;;;;;;;;5029354;28;20087;-84
2021/08/28 01:46:51;;;;;;;0.90;0.90;;;;;;;;;;5028301;28;20033;-83
2021/08/28 01:49:18;;;;;;;0.90;0.90;;;;;;;;;;5056476;28;20049;-83
2021/08/28 01:51:46;;;;;;;2.35;0.90;;;;;;;;;;5028376;28;20432;-84
2021/08/28 01:54:13;;;;;;;1.40;1.00;;;;;;;;;;5026624;28;20029;-83
2021/08/28 01:56:40;;;;;;;1.00;1.00;;;;;;;;;;5047782;28;20096;-83
2021/08/28 01:59:06;;;;;;;0.90;0.90;;;;;;;;;;5029098;28;20079;-83
2021/08/28 02:01:34;;;;;;;1.00;1.00;;;;;;;;;;5010397;28;20152;-83
2021/08/28 02:04:02;;;;;;;1.00;1.00;;;;;;;;;;5060559;28;20042;-83
2021/08/28 02:06:28;;;;;;;1.27;1.17;;;;;;;;;;5029112;28;20041;-83
2021/08/28 02:09:00;;;;;;;0.90;0.90;;;;;;;;;;5028058;28;20053;-83
2021/08/28 02:11:34;;;;;;;1.30;1.30;;;;;;;;;;5029778;28;20077;-83
2021/08/28 02:14:07;;;;;;;1.27;1.25;;;;;;;;;;5026291;28;20514;-83
2021/08/28 02:16:35;;;;;;;1.17;1.08;;;;;;;;;;5029307;28;20356;-83
2021/08/28 02:19:31;;;;;;;1.08;1.08;;;;;;;;;;5058717;28;20034;-83
2021/08/28 02:21:59;;;;;;;1.00;1.00;;;;;;;;;;4985929;28;20455;-83
2021/08/28 02:24:29;;;;;;;0.85;0.85;;;;;;;;;;4970895;28;20038;-83
2021/08/28 02:27:05;;;;;;;1.58;1.00;;;;;;;;;;4986757;28;20201;-83
2021/08/28 02:29:34;;;;;;;1.75;1.52;;;;;;;;;;4983808;28;20051;-83
2021/08/28 02:32:01;;;;;;;1.02;1.02;;;;;;;;;;4985197;28;20105;-83
2021/08/28 02:34:30;;;;;;;1.10;0.90;;;;;;;;;;4987296;28;20039;-83
2021/08/28 02:36:58;;;;;;;1.58;1.00;;;;;;;;;;4986600;28;20070;-83
2021/08/28 02:39:25;;;;;;;1.00;1.00;;;;;;;;;;4986280;28;20538;-83
2021/08/28 02:41:52;;;;;;;1.00;1.00;;;;;;;;;;4982460;28;20035;-83
2021/08/28 02:44:19;;;;;;;3.00;0.90;;;;;;;;;;4984021;28;20038;-84
2021/08/28 02:46:46;;;;;;;1.15;1.05;;;;;;;;;;4986558;28;20778;-83
2021/08/28 02:49:15;;;;;;;2.60;1.10;;;;;;;;;;4970441;28;20129;-83
2021/08/28 02:51:43;;;;;;;1.00;1.00;;;;;;;;;;4969899;28;20062;-83
2021/08/28 02:54:11;;;;;;;1.00;1.00;;;;;;;;;;4987272;28;20089;-83
2021/08/28 02:56:39;;;;;;;1.02;1.02;;;;;;;;;;4980194;28;20035;-83
2021/08/28 02:59:06;;;;;;;1.00;1.00;;;;;;;;;;5024665;28;20061;-83
2021/08/28 03:01:33;;;;;;;1.10;1.08;;;;;;;;;;5026888;28;20091;-83
2021/08/28 03:04:00;;;;;;;1.00;1.00;;;;;;;;;;5028406;28;20033;-83
2021/08/28 03:06:29;;;;;;;1.00;1.00;;;;;;;;;;5027814;28;20033;-83
2021/08/28 03:08:56;;;;;;;1.98;1.02;;;;;;;;;;5022797;28;20045;-83
2021/08/28 03:11:23;;;;;;;1.00;1.00;;;;;;;;;;5027684;28;20045;-83
2021/08/28 03:13:51;;;;;;;1.13;0.90;;;;;;;;;;5028068;28;20033;-83
2021/08/28 03:16:20;;;;;;;0.90;0.90;;;;;;;;;;5027571;28;20045;-83
2021/08/28 03:18:47;;;;;;;1.20;1.08;;;;;;;;;;5026071;28;20039;-83
2021/08/28 03:21:13;;;;;;;1.00;1.00;;;;;;;;;;5029791;28;20433;-83
2021/08/28 03:23:43;;;;;;;1.40;1.00;;;;;;;;;;5038476;28;20100;-83
2021/08/28 03:26:11;;;;;;;0.90;0.90;;;;;;;;;;5029866;28;20390;-83
2021/08/28 03:28:38;;;;;;;1.45;0.95;;;;;;;;;;5031600;28;20383;-83
2021/08/28 03:31:05;;;;;;;0.90;0.90;;;;;;;;;;5030740;28;20055;-83
2021/08/28 03:33:33;;;;;;;0.90;0.90;;;;;;;;;;5028947;28;20137;-83
2021/08/28 03:36:01;;;;;;;0.80;0.80;;;;;;;;;;5031050;28;20045;-83
2021/08/28 03:38:27;;;;;;;0.90;0.90;;;;;;;;;;5029419;28;20548;-83
2021/08/28 03:40:54;;;;;;;0.90;0.90;;;;;;;;;;5030975;28;20065;-83
2021/08/28 03:43:21;;;;;;;1.00;1.00;;;;;;;;;;5028851;28;20061;-83
2021/08/28 03:45:49;;;;;;;1.48;0.90;;;;;;;;;;5029998;28;20181;-83
2021/08/28 03:48:17;;;;;;;0.98;0.98;;;;;;;;;;5030618;28;20414;-83
2021/08/28 03:50:43;;;;;;;1.13;1.02;;;;;;;;;;5044664;28;20048;-83
2021/08/28 03:53:10;;;;;;;1.23;1.10;;;;;;;;;;5031289;28;20125;-83
2021/08/28 03:55:38;;;;;;;1.08;0.90;;;;;;;;;;5031763;28;20045;-83
2021/08/28 03:58:05;;;;;;;0.88;0.88;;;;;;;;;;5031478;28;20029;-83
2021/08/28 04:00:32;;;;;;;1.20;1.10;;;;;;;;;;5032020;28;20514;-83
2021/08/28 04:02:59;;;;;;;2.05;1.10;;;;;;;;;;5029987;28;20405;-83
2021/08/28 04:05:49;;;;;;;1.00;1.00;;;;;;;;;;5031713;28;20492;-83
2021/08/28 04:08:17;;;;;;;0.90;0.90;;;;;;;;;;4987550;28;20125;-83
2021/08/28 04:10:43;;;;;;;1.27;1.27;;;;;;;;;;4986830;28;20050;-83
2021/08/28 04:13:10;;;;;;;1.80;1.00;;;;;;;;;;4988936;28;20058;-83
2021/08/28 04:15:37;;;;;;;1.00;1.00;;;;;;;;;;4972516;28;20062;-83
2021/08/28 04:18:03;;;;;;;1.00;1.00;;;;;;;;;;4986975;28;20042;-83
2021/08/28 04:20:30;;;;;;;1.48;1.15;;;;;;;;;;4985781;28;20178;-83
2021/08/28 04:22:58;;;;;;;1.48;0.90;;;;;;;;;;4959277;28;20557;-83
2021/08/28 04:25:25;;;;;;;1.02;1.02;;;;;;;;;;4986171;28;20053;-83
2021/08/28 04:27:52;;;;;;;1.10;1.00;;;;;;;;;;4986852;28;20092;-83
2021/08/28 04:30:19;;;;;;;0.93;0.93;;;;;;;;;;4969009;28;20086;-83
2021/08/28 04:32:46;;;;;;;1.55;1.10;;;;;;;;;;4967926;28;20060;-83
2021/08/28 04:35:12;;;;;;;2.05;1.00;;;;;;;;;;4988756;28;20038;-83
2021/08/28 04:37:39;;;;;;;1.58;1.17;;;;;;;;;;4988345;28;20474;-83
2021/08/28 04:40:06;;;;;;;1.00;1.00;;;;;;;;;;4970974;28;20042;-83
2021/08/28 04:42:32;;;;;;;2.60;1.10;;;;;;;;;;4988277;28;20468;-83
2021/08/28 04:45:00;;;;;;;1.10;1.10;;;;;;;;;;5000726;28;20057;-83
2021/08/28 04:47:27;;;;;;;0.90;0.90;;;;;;;;;;5025515;28;20045;-83
2021/08/28 04:49:54;;;;;;;1.17;1.08;;;;;;;;;;5029758;28;20076;-83
2021/08/28 04:52:20;;;;;;;0.90;0.90;;;;;;;;;;5029336;28;20112;-83
2021/08/28 04:54:47;;;;;;;0.90;0.90;;;;;;;;;;5029878;28;20041;-83
2021/08/28 04:57:14;;;;;;;1.48;0.80;;;;;;;;;;5026395;28;20120;-83
2021/08/28 04:59:41;;;;;;;2.38;1.27;;;;;;;;;;5030764;28;20605;-83
2021/08/28 05:02:07;;;;;;;0.93;0.93;;;;;;;;;;5029440;28;20041;-83
2021/08/28 05:04:35;;;;;;;2.58;1.10;;;;;;;;;;5059379;28;20033;-83
2021/08/28 05:07:02;;;;;;;1.70;1.02;;;;;;;;;;5038567;28;20029;-83
2021/08/28 05:09:29;;;;;;;0.85;0.85;;;;;;;;;;5028886;28;20053;-83
2021/08/28 05:11:56;;;;;;;0.95;0.95;;;;;;;;;;5029530;28;20049;-83
2021/08/28 05:14:23;;;;;;;1.02;1.02;;;;;;;;;;5029481;28;20490;-83
2021/08/28 05:16:52;;;;;;;1.00;1.00;;;;;;;;;;5059296;28;20038;-83
2021/08/28 05:19:18;;;;;;;1.15;1.15;;;;;;;;;;5028524;28;20045;-83
2021/08/28 05:21:46;;;;;;;1.10;1.00;;;;;;;;;;5028192;28;20029;-83
2021/08/28 05:24:13;;;;;;;1.27;1.27;;;;;;;;;;5030490;28;20056;-83
2021/08/28 05:26:40;;;;;;;1.00;1.00;;;;;;;;;;5026570;28;20041;-83
2021/08/28 05:29:09;;;;;;;1.00;1.00;;;;;;;;;;5027922;28;20053;-83
2021/08/28 05:31:36;;;;;;;3.80;1.17;;;;;;;;;;5028425;28;20087;-83
2021/08/28 05:34:02;;;;;;;1.00;1.00;;;;;;;;;;5028005;28;20754;-83
2021/08/28 05:36:29;;;;;;;0.90;0.90;;;;;;;;;;5062118;28;20038;-83
2021/08/28 05:38:56;;;;;;;1.00;1.00;;;;;;;;;;5026918;28;20049;-83
2021/08/28 05:41:23;;;;;;;2.05;1.10;;;;;;;;;;5028503;28;20049;-83
2021/08/28 05:43:50;;;;;;;1.83;1.02;;;;;;;;;;5028078;28;20037;-83
2021/08/28 05:46:16;;;;;;;1.35;0.82;;;;;;;;;;5040973;28;20052;-83
2021/08/28 05:48:43;;;;;;;0.90;0.90;;;;;;;;;;5027333;28;20048;-83
2021/08/28 05:51:10;;;;;;;0.93;0.93;;;;;;;;;;5028484;28;20041;-83
2021/08/28 05:53:36;;;;;;;0.95;0.95;;;;;;;;;;5027445;28;20046;-83
2021/08/28 05:56:03;;;;;;;0.80;0.80;;;;;;;;;;5027267;28;20065;-83
2021/08/28 05:58:30;;;;;;;1.00;1.00;;;;;;;;;;5028603;28;20045;-83
2021/08/28 06:00:57;;;;;;;1.40;0.93;;;;;;;;;;5030278;28;20029;-83
2021/08/28 06:03:24;;;;;;;1.05;1.05;;;;;;;;;;5029168;28;20053;-83
2021/08/28 06:05:50;;;;;;;1.10;1.00;;;;;;;;;;5027786;28;20123;-83
2021/08/28 06:08:17;;;;;;;1.83;1.00;;;;;;;;;;5027299;28;20044;-83
2021/08/28 06:10:44;;;;;;;1.13;1.13;;;;;;;;;;5061314;28;20128;-83
2021/08/28 06:13:11;;;;;;;0.85;0.85;;;;;;;;;;5043553;28;20493;-83
2021/08/28 06:15:38;;;;;;;1.05;0.90;;;;;;;;;;5028058;28;20489;-83
2021/08/28 06:18:05;;;;;;;1.13;1.00;;;;;;;;;;5028469;28;20042;-83
2021/08/28 06:20:31;;;;;;;0.90;0.90;;;;;;;;;;5026466;28;20042;-83
2021/08/28 06:22:58;;;;;;;0.95;0.95;;;;;;;;;;5028409;28;20040;-83
2021/08/28 06:25:28;;;;;;;0.90;0.90;;;;;;;;;;5028379;28;20049;-83
2021/08/28 06:27:55;;;;;;;1.83;1.15;;;;;;;;;;5029738;28;20382;-83
2021/08/28 06:30:22;;;;;;;1.00;1.00;;;;;;;;;;5029231;28;20041;-83
2021/08/28 06:32:48;;;;;;;1.13;1.00;;;;;;;;;;5026563;28;20029;-83
2021/08/28 06:35:15;;;;;;;1.23;1.13;;;;;;;;;;5028198;28;20108;-83
2021/08/28 06:37:42;;;;;;;0.90;0.90;;;;;;;;;;5027101;28;20352;-83
2021/08/28 06:40:09;;;;;;;1.13;1.10;;;;;;;;;;5028279;28;20042;-83
2021/08/28 06:42:37;;;;;;;5.57;0.90;;;;;;;;;;5027847;28;20041;-82
2021/08/28 06:45:04;;;;;;;2.00;1.10;;;;;;;;;;5058117;28;20786;-82
2021/08/28 06:47:31;;;;;;;1.15;1.00;;;;;;;;;;5029534;28;20092;-82
2021/08/28 06:49:58;;;;;;;0.82;0.82;;;;;;;;;;5028693;28;20033;-82
2021/08/28 06:52:25;;;;;;;1.05;0.90;;;;;;;;;;5028634;28;20042;-83
2021/08/28 06:54:51;;;;;;;1.55;1.23;;;;;;;;;;5057685;28;20184;-83
2021/08/28 06:57:18;;;;;;;1.13;0.90;;;;;;;;;;5062181;28;20777;-82
2021/08/28 06:59:45;;;;;;;0.95;0.95;;;;;;;;;;5030425;28;20053;-82
2021/08/28 07:02:11;;;;;;;1.55;1.00;;;;;;;;;;5032405;28;20087;-83
2021/08/28 07:04:39;;;;;;;2.22;1.08;;;;;;;;;;5031441;28;20046;-83
2021/08/28 07:07:05;;;;;;;5.55;1.90;;;;;;;;;;5029583;28;20045;-82
2021/08/28 07:09:32;;;;;;;1.50;1.40;;;;;;;;;;5033218;28;20052;-82
2021/08/28 07:11:59;;;;;;;1.98;1.40;;;;;;;;;;5032503;28;20046;-82
2021/08/28 07:14:26;;;;;;;3.05;1.50;;;;;;;;;;5035349;28;20049;-82
2021/08/28 07:16:53;;;;;;;1.48;1.27;;;;;;;;;;5017295;28;20045;-82
2021/08/28 07:19:21;;;;;;;4.13;1.88;;;;;;;;;;5030683;28;20061;-82
2021/08/28 07:21:48;;;;;;;3.17;1.45;;;;;;;;;;5031446;28;20370;-82
2021/08/28 07:24:14;;;;;;;2.13;1.75;;;;;;;;;;5047951;28;20047;-82
2021/08/28 07:26:41;;;;;;;3.00;1.42;;;;;;;;;;5062374;28;20057;-82
2021/08/28 07:29:08;;;;;;;1.48;1.38;;;;;;;;;;5031775;28;20033;-82
2021/08/28 07:31:35;;;;;;;1.33;1.30;;;;;;;;;;5062334;28;20049;-82
2021/08/28 07:34:02;;;;;;;1.88;1.45;;;;;;;;;;5032951;28;20436;-82
2021/08/28 07:36:29;;;;;;;1.40;1.17;;;;;;;;;;5032228;28;20425;-83
2021/08/28 07:38:56;;;;;;;1.48;1.38;;;;;;;;;;5031683;28;20425;-83
2021/08/28 07:41:22;;;;;;;1.30;1.20;;;;;;;;;;5031001;28;20080;-82
2021/08/28 07:43:49;;;;;;;1.60;1.20;;;;;;;;;;5030240;28;20559;-82
2021/08/28 07:46:17;;;;;;;3.75;1.30;;;;;;;;;;5030786;28;20481;-82
2021/08/28 07:48:44;;;;;;;1.70;1.40;;;;;;;;;;5044879;28;20083;-82
2021/08/28 07:51:10;;;;;;;1.55;1.33;;;;;;;;;;5033086;28;20041;-82
2021/08/28 07:53:37;;;;;;;1.70;0.90;;;;;;;;;;5031962;28;20045;-82
2021/08/28 07:56:04;;;;;;;1.75;0.90;;;;;;;;;;5063114;28;20486;-82
2021/08/28 07:58:31;;;;;;;1.77;1.00;;;;;;;;;;5032525;28;20029;-82
2021/08/28 08:00:57;;;;;;;1.00;1.00;;;;;;;;;;5046109;28;20068;-81
2021/08/28 08:03:25;;;;;;;1.10;1.00;;;;;;;;;;5033008;28;20037;-81
2021/08/28 08:05:52;;;;;;;2.35;0.90;;;;;;;;;;5035047;28;20456;-81
2021/08/28 08:08:19;;;;;;;1.60;1.00;;;;;;;;;;5046234;28;20033;-81
2021/08/28 08:10:45;;;;;;;1.25;0.90;;;;;;;;;;5033306;28;20111;-81
2021/08/28 08:13:12;;;;;;;1.17;0.95;;;;;;;;;;5063759;28;20516;-81
2021/08/28 08:15:39;;;;;;;0.93;0.93;;;;;;;;;;5048705;28;20479;-81
2021/08/28 08:18:06;;;;;;;2.08;1.02;;;;;;;;;;5027683;28;20042;-81
2021/08/28 08:20:32;;;;;;;2.50;1.20;;;;;;;;;;5036419;28;20041;-81
2021/08/28 08:22:59;;;;;;;2.53;1.27;;;;;;;;;;5028146;28;20092;-81
2021/08/28 08:25:27;;;;;;;2.03;1.20;;;;;;;;;;5032655;28;20073;-81
2021/08/28 08:27:53;;;;;;;1.10;1.10;;;;;;;;;;5031093;28;20110;-81
2021/08/28 08:30:20;;;;;;;2.08;1.08;;;;;;;;;;5061222;28;20041;-81
2021/08/28 08:32:47;;;;;;;1.10;1.10;;;;;;;;;;5031218;28;20038;-81
2021/08/28 08:35:14;;;;;;;1.10;1.10;;;;;;;;;;5063917;28;20080;-81
2021/08/28 08:37:40;;;;;;;2.75;1.20;;;;;;;;;;5030640;28;20038;-81
2021/08/28 08:40:07;;;;;;;1.45;1.02;;;;;;;;;;5032042;28;20042;-80
2021/08/28 08:42:34;;;;;;;1.50;1.00;;;;;;;;;;5028045;28;20536;-81
2021/08/28 08:45:03;;;;;;;1.75;1.00;;;;;;;;;;5024595;28;20049;-81
2021/08/28 08:47:31;;;;;;;1.20;1.10;;;;;;;;;;5033329;28;20068;-81
2021/08/28 08:49:59;;;;;;;1.30;1.00;;;;;;;;;;5062602;28;20036;-81
2021/08/28 08:52:26;;;;;;;0.90;0.90;;;;;;;;;;5045687;28;20359;-81
2021/08/28 08:54:53;;;;;;;2.00;1.10;;;;;;;;;;5032622;28;20046;-81
2021/08/28 08:57:20;;;;;;;0.93;0.93;;;;;;;;;;5031897;28;20041;-81
2021/08/28 08:59:47;;;;;;;5.22;1.88;;;;;;;;;;5046065;28;20049;-81
2021/08/28 09:02:14;;;;;;;0.90;0.90;;;;;;;;;;5029194;28;20064;-81
2021/08/28 09:04:41;;;;;;;1.42;0.90;;;;;;;;;;5031712;28;20040;-81
2021/08/28 09:07:12;;;;;;;0.88;0.88;;;;;;;;;;5031213;28;20077;-81
2021/08/28 09:09:39;;;;;;;1.00;0.90;;;;;;;;;;5032171;28;20048;-81
2021/08/28 09:12:11;;;;;;;1.00;1.00;;;;;;;;;;5030119;28;20038;-81
2021/08/28 09:14:38;;;;;;;1.20;1.10;;;;;;;;;;5032237;28;20087;-81
2021/08/28 09:17:19;;;;;;;1.10;0.80;;;;;;;;;;5031537;28;20088;-81
2021/08/28 09:19:47;;;;;;;0.95;0.90;;;;;;;;;;5032542;28;20120;-81
2021/08/28 09:22:20;;;;;;;2.35;0.95;;;;;;;;;;5044337;28;20049;-81
2021/08/28 09:24:48;;;;;;;;;;;;;;;;;;5030747;28;20075;-81
2021/08/28 09:27:34;;;;;;;0.80;0.80;;;;;;;;;;5028401;28;20389;-81
2021/08/28 09:30:02;;;;;;;0.93;0.93;;;;;;;;;;5027817;28;20037;-81
2021/08/28 09:32:34;;;;;;;0.80;0.80;;;;;;;;;;5061959;28;20469;-81
2021/08/28 09:35:08;;;;;;;0.90;0.90;;;;;;;;;;5021320;28;20174;-81
2021/08/28 09:37:35;;;;;;;1.05;0.88;;;;;;;;;;5018878;28;20071;-80
2021/08/28 09:40:04;;;;;;;1.48;0.88;;;;;;;;;;5030630;28;20108;-80
2021/08/28 09:42:31;;;;;;;1.05;0.90;;;;;;;;;;5029905;28;20437;-80
2021/08/28 09:45:07;;;;;;;1.60;0.80;;;;;;;;;;5030504;28;20125;-80
2021/08/28 09:47:34;;;;;;;0.82;0.82;;;;;;;;;;5051822;28;20469;-80
2021/08/28 09:50:01;;;;;;;0.88;0.88;;;;;;;;;;5032298;28;20049;-81
2021/08/28 09:52:28;;;;;;;1.50;0.85;;;;;;;;;;5061322;28;20068;-81
2021/08/28 09:54:55;;;;;;;0.80;0.80;;;;;;;;;;5014337;28;20136;-80
2021/08/28 09:57:29;;;;;;;0.90;0.90;;;;;;;;;;5036399;28;20057;-80
2021/08/28 10:00:00;;;;;;;1.58;0.70;;;;;;;;;;5046619;28;20132;-80
2021/08/28 10:02:27;;;;;;;0.70;0.70;;;;;;;;;;5031913;28;20029;-80
2021/08/28 10:04:54;;;;;;;1.10;0.70;;;;;;;;;;5044485;28;20033;-80
2021/08/28 10:07:28;;;;;;;0.80;0.80;;;;;;;;;;5046229;28;20078;-80
2021/08/28 10:09:56;;;;;;;0.70;0.70;;;;;;;;;;5028704;28;20038;-80
2021/08/28 10:12:29;;;;;;;0.82;0.80;;;;;;;;;;5039918;28;20034;-80
2021/08/28 10:14:57;;;;;;;0.80;0.80;;;;;;;;;;5031287;28;20095;-80
2021/08/28 10:17:26;;;;;;;0.80;0.80;;;;;;;;;;5029651;28;20049;-80
2021/08/28 10:19:57;;;;;;;2.40;0.75;;;;;;;;;;5028665;28;20363;-80
2021/08/28 10:22:25;;;;;;;0.80;0.80;;;;;;;;;;5061029;28;20033;-80
2021/08/28 10:24:56;;;;;;;0.85;0.85;;;;;;;;;;5040891;28;20037;-80
2021/08/28 10:27:24;;;;;;;0.70;0.70;;;;;;;;;;5035015;28;20136;-81
2021/08/28 10:29:52;;;;;;;0.70;0.70;;;;;;;;;;5034066;28;20052;-81
2021/08/28 10:32:19;;;;;;;1.33;0.98;;;;;;;;;;5034781;28;20540;-81
2021/08/28 10:34:47;;;;;;;0.70;0.70;;;;;;;;;;5065686;28;20077;-81
2021/08/28 10:37:14;;;;;;;0.70;0.70;;;;;;;;;;5034133;28;20037;-81
2021/08/28 10:39:42;;;;;;;0.80;0.80;;;;;;;;;;5030126;28;20053;-81
2021/08/28 10:42:10;;;;;;;0.70;0.70;;;;;;;;;;5034258;28;20033;-81
2021/08/28 10:44:37;;;;;;;0.70;0.70;;;;;;;;;;5031739;28;20409;-81
2021/08/28 10:47:33;;;;;;;0.70;0.70;;;;;;;;;;5032402;28;20075;-81
2021/08/28 10:50:06;;;;;;;0.70;0.70;;;;;;;;;;4953868;28;20055;-81
2021/08/28 10:52:37;;;;;;;0.80;0.80;;;;;;;;;;4940247;29;20051;-81
2021/08/28 10:55:08;;;;;;;0.77;0.77;;;;;;;;;;4924063;28;20060;-81
2021/08/28 10:57:36;;;;;;;0.77;0.77;;;;;;;;;;4954129;28;20389;-81
2021/08/28 11:00:06;;;;;;;0.70;0.70;;;;;;;;;;4921649;29;20599;-81
2021/08/28 11:02:48;;;;;;;2.85;0.80;;;;;;;;;;4952445;29;20047;-81
2021/08/28 11:05:19;;;;;;;0.70;0.70;;;;;;;;;;4937910;29;20602;-81
2021/08/28 11:07:46;;;;;;;0.70;0.70;;;;;;;;;;4938866;29;20082;-81
2021/08/28 11:10:14;;;;;;;0.80;0.80;;;;;;;;;;4954136;29;20584;-81
2021/08/28 11:12:55;;;;;;;0.77;0.77;;;;;;;;;;4922627;29;20274;-81
2021/08/28 11:15:25;;;;;;;0.80;0.80;;;;;;;;;;4947682;29;20636;-81
2021/08/28 11:17:52;;;;;;;0.70;0.70;;;;;;;;;;4937271;29;20048;-81
2021/08/28 11:20:23;;;;;;;0.60;0.60;;;;;;;;;;4929872;29;20051;-81
2021/08/28 11:22:50;;;;;;;0.80;0.80;;;;;;;;;;4936535;28;20043;-81
2021/08/28 11:25:22;;;;;;;0.70;0.70;;;;;;;;;;4947154;28;20488;-81
2021/08/28 11:27:54;;;;;;;0.60;0.60;;;;;;;;;;5035490;28;20088;-81
2021/08/28 11:30:39;;;;;;;0.70;0.70;;;;;;;;;;5031895;28;20339;-81
2021/08/28 11:33:30;;;;;;;0.73;0.70;;;;;;;;;;5027292;28;20053;-81
2021/08/28 11:35:58;;;;;;;0.70;0.70;;;;;;;;;;5055897;28;20053;-81
2021/08/28 11:38:38;;;;;;;0.70;0.70;;;;;;;;;;5067661;28;20048;-81
2021/08/28 11:41:09;;;;;;;0.70;0.70;;;;;;;;;;5011025;28;20037;-81
2021/08/28 11:43:39;;;;;;;0.60;0.60;;;;;;;;;;5037215;28;20091;-81
2021/08/28 11:46:26;;;;;;;1.58;0.70;;;;;;;;;;5037799;28;20045;-81
2021/08/28 11:48:54;;;;;;;0.70;0.70;;;;;;;;;;5037756;28;20041;-81
2021/08/28 11:51:22;;;;;;;0.73;0.73;;;;;;;;;;5021544;28;20048;-81
2021/08/28 11:53:56;;;;;;;0.70;0.68;;;;;;;;;;5036905;28;20057;-81
2021/08/28 11:56:30;;;;;;;0.70;0.70;;;;;;;;;;5069744;28;20168;-81
2021/08/28 11:58:58;;;;;;;2.70;0.80;;;;;;;;;;5036843;28;20426;-81
2021/08/28 12:01:25;;;;;;;1.25;0.80;;;;;;;;;;5068651;28;20049;-81
2021/08/28 12:03:53;;;;;;;1.00;0.70;;;;;;;;;;5032814;28;20049;-81
2021/08/28 12:06:22;;;;;;;0.70;0.70;;;;;;;;;;5034602;28;20045;-81
2021/08/28 12:08:49;;;;;;;0.68;0.68;;;;;;;;;;5034690;28;20041;-81
2021/08/28 12:11:16;;;;;;;0.70;0.70;;;;;;;;;;5030894;28;20128;-81
2021/08/28 12:13:50;;;;;;;0.70;0.70;;;;;;;;;;5026287;28;20144;-81
2021/08/28 12:16:23;;;;;;;0.98;0.70;;;;;;;;;;5032585;28;20037;-81
2021/08/28 12:18:59;;;;;;;0.63;0.63;;;;;;;;;;5064691;28;20056;-80
2021/08/28 12:21:26;;;;;;;2.05;0.60;;;;;;;;;;5046081;28;20405;-82
2021/08/28 12:23:54;;;;;;;1.23;0.60;;;;;;;;;;5043638;28;20470;-82
2021/08/28 12:26:22;;;;;;;3.03;0.60;;;;;;;;;;5030911;28;20041;-82
2021/08/28 12:28:49;;;;;;;0.50;0.50;;;;;;;;;;5029158;28;20044;-82
2021/08/28 12:31:17;;;;;;;0.60;0.60;;;;;;;;;;5029682;28;20045;-82
2021/08/28 12:33:44;;;;;;;0.60;0.60;;;;;;;;;;5014415;28;20061;-82
2021/08/28 12:36:31;;;;;;;0.60;0.60;;;;;;;;;;5030641;28;20042;-82
2021/08/28 12:39:03;;;;;;;0.60;0.52;;;;;;;;;;5031583;28;20099;-82
2021/08/28 12:41:30;;;;;;;0.50;0.50;;;;;;;;;;5030749;28;20060;-82
2021/08/28 12:43:57;;;;;;;0.50;0.50;;;;;;;;;;5030823;28;20045;-82
2021/08/28 12:46:25;;;;;;;0.50;0.50;;;;;;;;;;5030984;28;20462;-82
2021/08/28 12:49:08;;;;;;;1.20;0.60;;;;;;;;;;5062587;28;20053;-82
2021/08/28 12:51:35;;;;;;;0.50;0.50;;;;;;;;;;5030568;28;20048;-82
2021/08/28 12:54:02;;;;;;;0.88;0.55;;;;;;;;;;5028303;28;20041;-82
2021/08/28 12:56:29;;;;;;;0.57;0.50;;;;;;;;;;5032548;28;20417;-82
2021/08/28 12:58:56;;;;;;;0.50;0.50;;;;;;;;;;5030032;28;20037;-82
2021/08/28 13:01:23;;;;;;;0.50;0.50;;;;;;;;;;5027583;28;20095;-82
2021/08/28 13:03:50;;;;;;;0.60;0.60;;;;;;;;;;5010870;28;20137;-82
2021/08/28 13:06:23;;;;;;;0.98;0.60;;;;;;;;;;5058041;28;20565;-82
2021/08/28 13:08:51;;;;;;;0.57;0.57;;;;;;;;;;5045247;28;20064;-82
2021/08/28 13:11:22;;;;;;;0.57;0.57;;;;;;;;;;5025619;28;20041;-82
2021/08/28 13:14:01;;;;;;;0.50;0.50;;;;;;;;;;5028962;28;20068;-82
2021/08/28 13:16:28;;;;;;;0.50;0.50;;;;;;;;;;5026712;28;20428;-82
2021/08/28 13:19:08;;;;;;;0.50;0.50;;;;;;;;;;5028793;28;20030;-82
2021/08/28 13:21:36;;;;;;;0.50;0.50;;;;;;;;;;5024509;28;20045;-82
2021/08/28 13:24:09;;;;;;;0.52;0.52;;;;;;;;;;5021885;28;20092;-82
2021/08/28 13:26:55;;;;;;;1.35;0.50;;;;;;;;;;5039909;28;20038;-82
2021/08/28 13:29:33;;;;;;;0.50;0.50;;;;;;;;;;5056070;28;20045;-82
2021/08/28 13:32:03;;;;;;;0.50;0.50;;;;;;;;;;5062323;28;20049;-82
2021/08/28 13:34:40;;;;;;;0.50;0.50;;;;;;;;;;5026258;28;20572;-82
2021/08/28 13:37:10;;;;;;;0.50;0.50;;;;;;;;;;5030034;28;20458;-82
2021/08/28 13:39:41;;;;;;;0.50;0.50;;;;;;;;;;5028363;28;20041;-82
2021/08/28 13:42:18;;;;;;;1.10;0.50;;;;;;;;;;5028673;28;20437;-82
2021/08/28 13:44:45;;;;;;;0.50;0.50;;;;;;;;;;5030139;28;20120;-82
2021/08/28 13:47:12;;;;;;;0.50;0.50;;;;;;;;;;5059324;28;20041;-82
2021/08/28 13:49:39;;;;;;;1.17;0.50;;;;;;;;;;5020806;28;20050;-82
2021/08/28 13:52:07;;;;;;;1.42;0.50;;;;;;;;;;5027813;28;20486;-82
2021/08/28 13:54:34;;;;;;;0.60;0.60;;;;;;;;;;5012373;28;20049;-82
2021/08/28 13:57:01;;;;;;;0.50;0.50;;;;;;;;;;5026808;28;20551;-82
2021/08/28 13:59:27;;;;;;;1.55;0.57;;;;;;;;;;5021966;28;20111;-82
2021/08/28 14:01:54;;;;;;;0.60;0.60;;;;;;;;;;5009290;28;20045;-82
2021/08/28 14:04:21;;;;;;;1.48;0.60;;;;;;;;;;5024599;28;20038;-82
2021/08/28 14:06:48;;;;;;;0.50;0.50;;;;;;;;;;5028313;28;20067;-83
2021/08/28 14:09:15;;;;;;;0.50;0.50;;;;;;;;;;5030305;28;20060;-82
2021/08/28 14:11:42;;;;;;;0.52;0.52;;;;;;;;;;5030080;28;20033;-82
2021/08/28 14:14:09;;;;;;;0.50;0.50;;;;;;;;;;5029084;28;20102;-82
2021/08/28 14:16:36;;;;;;;0.60;0.60;;;;;;;;;;5023331;28;20038;-82
2021/08/28 14:19:03;;;;;;;1.42;0.50;;;;;;;;;;5028655;28;20038;-83
2021/08/28 14:21:30;;;;;;;0.60;0.55;;;;;;;;;;5025416;28;20050;-83
2021/08/28 14:23:57;;;;;;;3.15;0.60;;;;;;;;;;5028773;28;20398;-83
2021/08/28 14:26:23;;;;;;;0.50;0.50;;;;;;;;;;5030320;28;20064;-83
2021/08/28 14:28:50;;;;;;;2.70;0.73;;;;;;;;;;5059116;28;20037;-83
2021/08/28 14:31:17;;;;;;;0.50;0.50;;;;;;;;;;5043776;28;20041;-83
2021/08/28 14:33:44;;;;;;;0.50;0.50;;;;;;;;;;5057790;28;20486;-83
2021/08/28 14:36:10;;;;;;;0.52;0.52;;;;;;;;;;5028945;28;20057;-83
2021/08/28 14:38:37;;;;;;;0.50;0.50;;;;;;;;;;5041432;28;20048;-83
2021/08/28 14:41:04;;;;;;;0.43;0.43;;;;;;;;;;5054860;28;20398;-83
2021/08/28 14:43:31;;;;;;;0.50;0.50;;;;;;;;;;5021973;28;20084;-83
2021/08/28 14:45:57;;;;;;;0.50;0.50;;;;;;;;;;5023695;28;20026;-82
2021/08/28 14:48:24;;;;;;;0.80;0.47;;;;;;;;;;5027605;28;20074;-82
2021/08/28 14:50:51;;;;;;;0.50;0.50;;;;;;;;;;5026659;28;20060;-82